sensor_id;sensor_type;location;lat;lon;timestamp;P1;durP1;ratioP1;P2;durP2;ratioP2
52126;SDS011;38120;53.176;6.614;2024-03-23T00:53:48;25.15;;;8.65;;
52126;SDS011;38120;53.176;6.614;2024-03-23T00:56:14;32.67;;;9.93;;
52126;SDS011;38120;53.176;6.614;2024-03-23T00:58:40;26.30;;;8.88;;
52126;SDS011;38120;53.176;6.614;2024-03-23T01:01:13;27.67;;;9.63;;
52126;SDS011;38120;53.176;6.614;2024-03-23T01:04:20;23.25;;;8.88;;
52126;SDS011;38120;53.176;6.614;2024-03-23T01:06:48;20.02;;;8.05;;
52126;SDS011;38120;53.176;6.614;2024-03-23T01:09:14;23.80;;;8.93;;
52126;SDS011;38120;53.176;6.614;2024-03-23T01:12:17;28.15;;;9.23;;
52126;SDS011;38120;53.176;6.614;2024-03-23T01:15:19;22.65;;;9.23;;
52126;SDS011;38120;53.176;6.614;2024-03-23T01:17:45;28.42;;;9.20;;
52126;SDS011;38120;53.176;6.614;2024-03-23T01:20:11;20.63;;;9.10;;
52126;SDS011;38120;53.176;6.614;2024-03-23T01:25:28;28.77;;;8.55;;
52126;SDS011;38120;53.176;6.614;2024-03-23T01:27:53;28.63;;;9.10;;
52126;SDS011;38120;53.176;6.614;2024-03-23T01:30:29;21.92;;;8.25;;
52126;SDS011;38120;53.176;6.614;2024-03-23T01:33:47;22.92;;;8.75;;
52126;SDS011;38120;53.176;6.614;2024-03-23T01:36:47;33.53;;;9.77;;
52126;SDS011;38120;53.176;6.614;2024-03-23T01:39:13;27.00;;;9.43;;
52126;SDS011;38120;53.176;6.614;2024-03-23T01:41:39;23.10;;;9.17;;
52126;SDS011;38120;53.176;6.614;2024-03-23T01:44:07;27.02;;;8.85;;
52126;SDS011;38120;53.176;6.614;2024-03-23T01:46:33;30.25;;;10.05;;
52126;SDS011;38120;53.176;6.614;2024-03-23T01:49:02;27.40;;;9.88;;
52126;SDS011;38120;53.176;6.614;2024-03-23T01:51:30;39.95;;;10.15;;
52126;SDS011;38120;53.176;6.614;2024-03-23T01:53:57;23.45;;;8.13;;
52126;SDS011;38120;53.176;6.614;2024-03-23T01:56:27;29.20;;;10.23;;
52126;SDS011;38120;53.176;6.614;2024-03-23T01:58:54;28.05;;;10.13;;
52126;SDS011;38120;53.176;6.614;2024-03-23T02:01:19;17.77;;;9.50;;
52126;SDS011;38120;53.176;6.614;2024-03-23T02:03:46;29.55;;;8.88;;
52126;SDS011;38120;53.176;6.614;2024-03-23T02:06:11;27.13;;;8.40;;
52126;SDS011;38120;53.176;6.614;2024-03-23T02:08:37;23.30;;;10.00;;
52126;SDS011;38120;53.176;6.614;2024-03-23T02:13:29;27.52;;;9.75;;
52126;SDS011;38120;53.176;6.614;2024-03-23T02:15:56;22.63;;;8.93;;
52126;SDS011;38120;53.176;6.614;2024-03-23T02:18:22;24.05;;;8.88;;
52126;SDS011;38120;53.176;6.614;2024-03-23T02:20:48;25.73;;;8.65;;
52126;SDS011;38120;53.176;6.614;2024-03-23T02:23:14;32.47;;;8.97;;
52126;SDS011;38120;53.176;6.614;2024-03-23T02:25:41;24.65;;;8.43;;
52126;SDS011;38120;53.176;6.614;2024-03-23T02:28:07;32.37;;;9.07;;
52126;SDS011;38120;53.176;6.614;2024-03-23T02:30:33;25.35;;;8.52;;
52126;SDS011;38120;53.176;6.614;2024-03-23T02:32:59;22.53;;;8.27;;
52126;SDS011;38120;53.176;6.614;2024-03-23T02:35:24;26.33;;;8.45;;
52126;SDS011;38120;53.176;6.614;2024-03-23T02:37:50;14.57;;;7.40;;
52126;SDS011;38120;53.176;6.614;2024-03-23T02:40:16;21.10;;;8.83;;
52126;SDS011;38120;53.176;6.614;2024-03-23T02:42:42;23.42;;;8.05;;
52126;SDS011;38120;53.176;6.614;2024-03-23T02:45:08;25.23;;;7.95;;
52126;SDS011;38120;53.176;6.614;2024-03-23T02:47:34;27.27;;;8.17;;
52126;SDS011;38120;53.176;6.614;2024-03-23T02:50:00;23.40;;;8.07;;
52126;SDS011;38120;53.176;6.614;2024-03-23T02:52:25;24.30;;;9.67;;
52126;SDS011;38120;53.176;6.614;2024-03-23T02:54:51;21.33;;;8.10;;
52126;SDS011;38120;53.176;6.614;2024-03-23T02:57:17;22.10;;;8.97;;
52126;SDS011;38120;53.176;6.614;2024-03-23T02:59:49;24.03;;;7.67;;
52126;SDS011;38120;53.176;6.614;2024-03-23T03:02:15;23.75;;;7.95;;
52126;SDS011;38120;53.176;6.614;2024-03-23T03:05:03;21.00;;;7.72;;
52126;SDS011;38120;53.176;6.614;2024-03-23T03:07:30;20.73;;;7.00;;
52126;SDS011;38120;53.176;6.614;2024-03-23T03:12:22;23.33;;;7.45;;
52126;SDS011;38120;53.176;6.614;2024-03-23T03:14:48;24.83;;;7.90;;
52126;SDS011;38120;53.176;6.614;2024-03-23T03:17:14;17.83;;;6.60;;
52126;SDS011;38120;53.176;6.614;2024-03-23T03:19:40;21.73;;;7.13;;
52126;SDS011;38120;53.176;6.614;2024-03-23T03:22:05;28.77;;;8.37;;
52126;SDS011;38120;53.176;6.614;2024-03-23T03:24:31;17.50;;;6.23;;
52126;SDS011;38120;53.176;6.614;2024-03-23T03:26:58;22.48;;;7.95;;
52126;SDS011;38120;53.176;6.614;2024-03-23T03:29:23;19.33;;;6.97;;
52126;SDS011;38120;53.176;6.614;2024-03-23T03:31:49;19.17;;;7.68;;
52126;SDS011;38120;53.176;6.614;2024-03-23T03:34:15;24.08;;;7.55;;
52126;SDS011;38120;53.176;6.614;2024-03-23T03:36:41;16.90;;;7.47;;
52126;SDS011;38120;53.176;6.614;2024-03-23T03:39:07;24.13;;;7.53;;
52126;SDS011;38120;53.176;6.614;2024-03-23T03:41:33;17.90;;;6.75;;
52126;SDS011;38120;53.176;6.614;2024-03-23T03:43:58;17.50;;;7.37;;
52126;SDS011;38120;53.176;6.614;2024-03-23T03:46:30;17.85;;;7.00;;
52126;SDS011;38120;53.176;6.614;2024-03-23T03:48:55;18.58;;;7.50;;
52126;SDS011;38120;53.176;6.614;2024-03-23T03:51:21;26.00;;;7.43;;
52126;SDS011;38120;53.176;6.614;2024-03-23T03:53:47;20.83;;;7.57;;
52126;SDS011;38120;53.176;6.614;2024-03-23T03:56:13;20.60;;;6.93;;
52126;SDS011;38120;53.176;6.614;2024-03-23T03:58:38;25.03;;;8.07;;
52126;SDS011;38120;53.176;6.614;2024-03-23T04:01:05;21.00;;;7.07;;
52126;SDS011;38120;53.176;6.614;2024-03-23T04:03:31;20.77;;;6.18;;
52126;SDS011;38120;53.176;6.614;2024-03-23T04:05:57;23.33;;;6.35;;
52126;SDS011;38120;53.176;6.614;2024-03-23T04:08:22;22.47;;;7.33;;
52126;SDS011;38120;53.176;6.614;2024-03-23T04:10:49;18.17;;;6.18;;
52126;SDS011;38120;53.176;6.614;2024-03-23T04:13:14;19.02;;;5.70;;
52126;SDS011;38120;53.176;6.614;2024-03-23T04:15:41;20.80;;;7.10;;
52126;SDS011;38120;53.176;6.614;2024-03-23T04:18:07;22.70;;;6.35;;
52126;SDS011;38120;53.176;6.614;2024-03-23T04:20:33;19.38;;;6.70;;
52126;SDS011;38120;53.176;6.614;2024-03-23T04:22:59;16.33;;;6.67;;
52126;SDS011;38120;53.176;6.614;2024-03-23T04:25:25;15.90;;;5.43;;
52126;SDS011;38120;53.176;6.614;2024-03-23T04:28:10;26.10;;;7.75;;
52126;SDS011;38120;53.176;6.614;2024-03-23T04:30:36;16.05;;;6.07;;
52126;SDS011;38120;53.176;6.614;2024-03-23T04:36:21;18.50;;;6.05;;
52126;SDS011;38120;53.176;6.614;2024-03-23T04:39:08;18.42;;;6.20;;
52126;SDS011;38120;53.176;6.614;2024-03-23T04:41:34;24.83;;;7.33;;
52126;SDS011;38120;53.176;6.614;2024-03-23T04:44:00;18.42;;;6.55;;
52126;SDS011;38120;53.176;6.614;2024-03-23T04:46:26;16.25;;;6.25;;
52126;SDS011;38120;53.176;6.614;2024-03-23T04:48:52;19.40;;;6.75;;
52126;SDS011;38120;53.176;6.614;2024-03-23T04:51:25;18.02;;;5.85;;
52126;SDS011;38120;53.176;6.614;2024-03-23T04:53:51;19.95;;;6.80;;
52126;SDS011;38120;53.176;6.614;2024-03-23T04:56:19;21.63;;;7.53;;
52126;SDS011;38120;53.176;6.614;2024-03-23T04:58:45;14.15;;;6.28;;
52126;SDS011;38120;53.176;6.614;2024-03-23T05:01:11;16.17;;;6.57;;
52126;SDS011;38120;53.176;6.614;2024-03-23T05:06:54;22.67;;;6.97;;
52126;SDS011;38120;53.176;6.614;2024-03-23T05:09:20;18.92;;;5.55;;
52126;SDS011;38120;53.176;6.614;2024-03-23T05:12:05;23.65;;;6.97;;
52126;SDS011;38120;53.176;6.614;2024-03-23T05:14:41;18.20;;;6.78;;
52126;SDS011;38120;53.176;6.614;2024-03-23T05:17:31;15.52;;;5.63;;
52126;SDS011;38120;53.176;6.614;2024-03-23T05:19:57;17.15;;;6.65;;
52126;SDS011;38120;53.176;6.614;2024-03-23T05:22:23;20.97;;;6.30;;
52126;SDS011;38120;53.176;6.614;2024-03-23T05:24:48;21.47;;;7.40;;
52126;SDS011;38120;53.176;6.614;2024-03-23T05:27:14;21.57;;;6.53;;
52126;SDS011;38120;53.176;6.614;2024-03-23T05:29:40;13.70;;;6.32;;
52126;SDS011;38120;53.176;6.614;2024-03-23T05:32:27;19.20;;;7.13;;
52126;SDS011;38120;53.176;6.614;2024-03-23T05:34:53;17.43;;;6.53;;
52126;SDS011;38120;53.176;6.614;2024-03-23T05:37:46;14.90;;;6.30;;
52126;SDS011;38120;53.176;6.614;2024-03-23T05:40:27;20.63;;;6.32;;
52126;SDS011;38120;53.176;6.614;2024-03-23T05:42:53;22.58;;;6.50;;
52126;SDS011;38120;53.176;6.614;2024-03-23T05:45:22;18.00;;;6.05;;
52126;SDS011;38120;53.176;6.614;2024-03-23T05:51:08;11.90;;;4.80;;
52126;SDS011;38120;53.176;6.614;2024-03-23T05:53:38;16.52;;;6.05;;
52126;SDS011;38120;53.176;6.614;2024-03-23T05:56:04;23.00;;;5.90;;
52126;SDS011;38120;53.176;6.614;2024-03-23T05:58:30;15.18;;;5.38;;
52126;SDS011;38120;53.176;6.614;2024-03-23T06:01:02;16.50;;;5.55;;
52126;SDS011;38120;53.176;6.614;2024-03-23T06:03:29;14.18;;;5.55;;
52126;SDS011;38120;53.176;6.614;2024-03-23T06:05:55;14.13;;;5.22;;
52126;SDS011;38120;53.176;6.614;2024-03-23T06:08:22;19.27;;;6.00;;
52126;SDS011;38120;53.176;6.614;2024-03-23T06:10:49;14.75;;;5.72;;
52126;SDS011;38120;53.176;6.614;2024-03-23T06:13:15;14.27;;;5.50;;
52126;SDS011;38120;53.176;6.614;2024-03-23T06:15:42;13.82;;;4.80;;
52126;SDS011;38120;53.176;6.614;2024-03-23T06:18:08;14.52;;;5.03;;
52126;SDS011;38120;53.176;6.614;2024-03-23T06:20:34;16.05;;;4.70;;
52126;SDS011;38120;53.176;6.614;2024-03-23T06:23:03;14.60;;;4.07;;
52126;SDS011;38120;53.176;6.614;2024-03-23T06:25:36;6.72;;;2.50;;
52126;SDS011;38120;53.176;6.614;2024-03-23T06:28:38;9.75;;;3.03;;
52126;SDS011;38120;53.176;6.614;2024-03-23T06:31:10;9.73;;;3.20;;
52126;SDS011;38120;53.176;6.614;2024-03-23T06:33:36;8.43;;;2.85;;
52126;SDS011;38120;53.176;6.614;2024-03-23T06:36:01;12.40;;;3.58;;
52126;SDS011;38120;53.176;6.614;2024-03-23T06:38:28;8.30;;;2.85;;
52126;SDS011;38120;53.176;6.614;2024-03-23T06:40:54;10.23;;;2.88;;
52126;SDS011;38120;53.176;6.614;2024-03-23T06:43:20;17.30;;;3.40;;
52126;SDS011;38120;53.176;6.614;2024-03-23T06:45:53;9.32;;;2.67;;
52126;SDS011;38120;53.176;6.614;2024-03-23T06:48:19;8.50;;;3.47;;
52126;SDS011;38120;53.176;6.614;2024-03-23T06:50:45;11.45;;;2.90;;
52126;SDS011;38120;53.176;6.614;2024-03-23T06:53:15;8.35;;;2.85;;
52126;SDS011;38120;53.176;6.614;2024-03-23T06:55:41;14.75;;;3.63;;
52126;SDS011;38120;53.176;6.614;2024-03-23T06:58:06;16.02;;;3.95;;
52126;SDS011;38120;53.176;6.614;2024-03-23T07:00:32;7.53;;;3.30;;
52126;SDS011;38120;53.176;6.614;2024-03-23T07:02:59;13.32;;;3.80;;
52126;SDS011;38120;53.176;6.614;2024-03-23T07:07:51;17.33;;;3.95;;
52126;SDS011;38120;53.176;6.614;2024-03-23T07:10:16;11.40;;;4.77;;
52126;SDS011;38120;53.176;6.614;2024-03-23T07:12:42;12.18;;;3.40;;
52126;SDS011;38120;53.176;6.614;2024-03-23T07:15:08;9.82;;;3.55;;
52126;SDS011;38120;53.176;6.614;2024-03-23T07:17:34;11.32;;;3.60;;
52126;SDS011;38120;53.176;6.614;2024-03-23T07:20:01;14.27;;;4.30;;
52126;SDS011;38120;53.176;6.614;2024-03-23T07:22:29;8.80;;;3.30;;
52126;SDS011;38120;53.176;6.614;2024-03-23T07:24:56;9.98;;;3.63;;
52126;SDS011;38120;53.176;6.614;2024-03-23T07:27:22;8.57;;;2.97;;
52126;SDS011;38120;53.176;6.614;2024-03-23T07:29:49;5.15;;;1.73;;
52126;SDS011;38120;53.176;6.614;2024-03-23T07:32:15;8.80;;;2.20;;
52126;SDS011;38120;53.176;6.614;2024-03-23T07:34:41;5.80;;;2.13;;
52126;SDS011;38120;53.176;6.614;2024-03-23T07:37:09;5.03;;;1.70;;
52126;SDS011;38120;53.176;6.614;2024-03-23T07:39:39;5.78;;;2.47;;
52126;SDS011;38120;53.176;6.614;2024-03-23T07:42:05;7.97;;;2.33;;
52126;SDS011;38120;53.176;6.614;2024-03-23T07:44:31;2.33;;;1.38;;
52126;SDS011;38120;53.176;6.614;2024-03-23T07:46:56;7.87;;;2.10;;
52126;SDS011;38120;53.176;6.614;2024-03-23T07:49:30;4.55;;;1.75;;
52126;SDS011;38120;53.176;6.614;2024-03-23T07:51:56;7.90;;;1.70;;
52126;SDS011;38120;53.176;6.614;2024-03-23T07:54:21;6.40;;;2.57;;
52126;SDS011;38120;53.176;6.614;2024-03-23T07:56:47;8.87;;;2.17;;
52126;SDS011;38120;53.176;6.614;2024-03-23T07:59:13;7.57;;;2.65;;
52126;SDS011;38120;53.176;6.614;2024-03-23T08:01:39;8.38;;;2.58;;
52126;SDS011;38120;53.176;6.614;2024-03-23T08:04:05;6.17;;;3.03;;
52126;SDS011;38120;53.176;6.614;2024-03-23T08:06:31;9.23;;;2.40;;
52126;SDS011;38120;53.176;6.614;2024-03-23T08:08:57;11.60;;;2.83;;
52126;SDS011;38120;53.176;6.614;2024-03-23T08:11:29;10.82;;;3.72;;
52126;SDS011;38120;53.176;6.614;2024-03-23T08:13:56;8.15;;;2.63;;
52126;SDS011;38120;53.176;6.614;2024-03-23T08:16:22;10.18;;;3.17;;
52126;SDS011;38120;53.176;6.614;2024-03-23T08:18:48;8.60;;;3.00;;
52126;SDS011;38120;53.176;6.614;2024-03-23T08:21:16;9.23;;;2.60;;
52126;SDS011;38120;53.176;6.614;2024-03-23T08:23:43;9.10;;;3.15;;
52126;SDS011;38120;53.176;6.614;2024-03-23T08:26:10;7.88;;;2.95;;
52126;SDS011;38120;53.176;6.614;2024-03-23T08:28:37;9.23;;;3.08;;
52126;SDS011;38120;53.176;6.614;2024-03-23T08:31:12;9.63;;;2.85;;
52126;SDS011;38120;53.176;6.614;2024-03-23T08:33:40;12.45;;;3.75;;
52126;SDS011;38120;53.176;6.614;2024-03-23T08:36:10;18.27;;;3.58;;
52126;SDS011;38120;53.176;6.614;2024-03-23T08:38:39;9.45;;;3.55;;
52126;SDS011;38120;53.176;6.614;2024-03-23T08:41:06;9.82;;;3.80;;
52126;SDS011;38120;53.176;6.614;2024-03-23T08:43:37;11.57;;;3.75;;
52126;SDS011;38120;53.176;6.614;2024-03-23T08:48:42;9.48;;;3.63;;
52126;SDS011;38120;53.176;6.614;2024-03-23T08:51:18;10.45;;;3.63;;
52126;SDS011;38120;53.176;6.614;2024-03-23T08:53:44;10.30;;;3.80;;
52126;SDS011;38120;53.176;6.614;2024-03-23T08:58:36;17.55;;;4.47;;
52126;SDS011;38120;53.176;6.614;2024-03-23T09:01:12;12.13;;;3.88;;
52126;SDS011;38120;53.176;6.614;2024-03-23T09:06:11;12.18;;;4.30;;
52126;SDS011;38120;53.176;6.614;2024-03-23T09:08:39;11.52;;;4.20;;
52126;SDS011;38120;53.176;6.614;2024-03-23T09:11:12;8.88;;;3.63;;
52126;SDS011;38120;53.176;6.614;2024-03-23T09:13:38;9.13;;;3.65;;
52126;SDS011;38120;53.176;6.614;2024-03-23T09:16:06;13.75;;;4.13;;
52126;SDS011;38120;53.176;6.614;2024-03-23T09:18:33;15.40;;;4.78;;
52126;SDS011;38120;53.176;6.614;2024-03-23T09:21:00;13.82;;;4.05;;
52126;SDS011;38120;53.176;6.614;2024-03-23T09:25:52;15.73;;;3.28;;
52126;SDS011;38120;53.176;6.614;2024-03-23T09:28:18;10.75;;;4.28;;
52126;SDS011;38120;53.176;6.614;2024-03-23T09:30:44;12.50;;;3.60;;
52126;SDS011;38120;53.176;6.614;2024-03-23T09:33:10;13.70;;;4.03;;
52126;SDS011;38120;53.176;6.614;2024-03-23T09:38:02;9.48;;;3.92;;
52126;SDS011;38120;53.176;6.614;2024-03-23T09:40:32;9.93;;;3.10;;
52126;SDS011;38120;53.176;6.614;2024-03-23T09:42:58;9.85;;;2.97;;
52126;SDS011;38120;53.176;6.614;2024-03-23T09:45:27;7.45;;;2.72;;
52126;SDS011;38120;53.176;6.614;2024-03-23T09:47:57;8.35;;;2.83;;
52126;SDS011;38120;53.176;6.614;2024-03-23T09:50:23;10.98;;;2.83;;
52126;SDS011;38120;53.176;6.614;2024-03-23T09:52:49;7.07;;;2.20;;
52126;SDS011;38120;53.176;6.614;2024-03-23T09:55:15;8.02;;;2.35;;
52126;SDS011;38120;53.176;6.614;2024-03-23T09:57:41;8.13;;;3.00;;
52126;SDS011;38120;53.176;6.614;2024-03-23T10:00:07;13.98;;;3.20;;
52126;SDS011;38120;53.176;6.614;2024-03-23T10:02:34;10.75;;;3.00;;
52126;SDS011;38120;53.176;6.614;2024-03-23T10:05:00;10.70;;;2.60;;
52126;SDS011;38120;53.176;6.614;2024-03-23T10:07:26;8.25;;;2.13;;
52126;SDS011;38120;53.176;6.614;2024-03-23T10:09:55;8.68;;;2.10;;
52126;SDS011;38120;53.176;6.614;2024-03-23T10:12:22;7.75;;;1.67;;
52126;SDS011;38120;53.176;6.614;2024-03-23T10:14:52;6.47;;;1.77;;
52126;SDS011;38120;53.176;6.614;2024-03-23T10:17:19;5.10;;;2.00;;
52126;SDS011;38120;53.176;6.614;2024-03-23T10:19:49;11.70;;;2.58;;
52126;SDS011;38120;53.176;6.614;2024-03-23T10:22:17;13.25;;;3.42;;
52126;SDS011;38120;53.176;6.614;2024-03-23T10:24:44;9.27;;;2.75;;
52126;SDS011;38120;53.176;6.614;2024-03-23T10:27:17;10.80;;;3.38;;
52126;SDS011;38120;53.176;6.614;2024-03-23T10:29:47;9.50;;;3.30;;
52126;SDS011;38120;53.176;6.614;2024-03-23T10:32:18;15.82;;;4.15;;
52126;SDS011;38120;53.176;6.614;2024-03-23T10:34:44;9.18;;;3.65;;
52126;SDS011;38120;53.176;6.614;2024-03-23T10:37:11;10.15;;;3.20;;
52126;SDS011;38120;53.176;6.614;2024-03-23T10:39:38;8.77;;;2.72;;
52126;SDS011;38120;53.176;6.614;2024-03-23T10:42:06;10.90;;;3.65;;
52126;SDS011;38120;53.176;6.614;2024-03-23T10:44:33;8.65;;;1.90;;
52126;SDS011;38120;53.176;6.614;2024-03-23T10:47:00;5.22;;;1.77;;
52126;SDS011;38120;53.176;6.614;2024-03-23T10:49:30;6.93;;;2.05;;
52126;SDS011;38120;53.176;6.614;2024-03-23T10:52:00;6.97;;;2.17;;
52126;SDS011;38120;53.176;6.614;2024-03-23T10:54:27;15.02;;;7.30;;
52126;SDS011;38120;53.176;6.614;2024-03-23T10:59:41;5.40;;;2.22;;
52126;SDS011;38120;53.176;6.614;2024-03-23T11:02:09;9.98;;;3.28;;
52126;SDS011;38120;53.176;6.614;2024-03-23T11:04:44;8.93;;;3.22;;
52126;SDS011;38120;53.176;6.614;2024-03-23T11:09:54;7.32;;;2.75;;
52126;SDS011;38120;53.176;6.614;2024-03-23T11:14:52;8.68;;;2.50;;
52126;SDS011;38120;53.176;6.614;2024-03-23T11:17:22;9.98;;;2.95;;
52126;SDS011;38120;53.176;6.614;2024-03-23T11:20:04;9.23;;;3.00;;
52126;SDS011;38120;53.176;6.614;2024-03-23T11:25:20;8.55;;;3.50;;
52126;SDS011;38120;53.176;6.614;2024-03-23T11:27:50;11.70;;;3.10;;
52126;SDS011;38120;53.176;6.614;2024-03-23T11:30:20;8.38;;;3.45;;
52126;SDS011;38120;53.176;6.614;2024-03-23T11:32:48;12.77;;;3.40;;
52126;SDS011;38120;53.176;6.614;2024-03-23T11:35:37;10.77;;;3.28;;
52126;SDS011;38120;53.176;6.614;2024-03-23T11:38:11;8.63;;;3.25;;
52126;SDS011;38120;53.176;6.614;2024-03-23T11:40:39;13.02;;;3.80;;
52126;SDS011;38120;53.176;6.614;2024-03-23T11:43:06;11.23;;;3.55;;
52126;SDS011;38120;53.176;6.614;2024-03-23T11:45:45;13.57;;;3.38;;
52126;SDS011;38120;53.176;6.614;2024-03-23T11:48:13;9.57;;;2.80;;
52126;SDS011;38120;53.176;6.614;2024-03-23T11:50:44;12.60;;;3.70;;
52126;SDS011;38120;53.176;6.614;2024-03-23T11:55:42;8.63;;;3.23;;
52126;SDS011;38120;53.176;6.614;2024-03-23T11:58:12;10.05;;;3.08;;
52126;SDS011;38120;53.176;6.614;2024-03-23T12:00:39;11.05;;;3.78;;
52126;SDS011;38120;53.176;6.614;2024-03-23T12:03:05;14.52;;;2.70;;
52126;SDS011;38120;53.176;6.614;2024-03-23T12:05:31;11.48;;;4.07;;
52126;SDS011;38120;53.176;6.614;2024-03-23T12:10:53;11.30;;;3.25;;
52126;SDS011;38120;53.176;6.614;2024-03-23T12:13:34;9.50;;;2.63;;
52126;SDS011;38120;53.176;6.614;2024-03-23T12:16:10;8.50;;;2.70;;
52126;SDS011;38120;53.176;6.614;2024-03-23T12:18:43;7.57;;;2.70;;
52126;SDS011;38120;53.176;6.614;2024-03-23T12:21:10;14.02;;;2.72;;
52126;SDS011;38120;53.176;6.614;2024-03-23T12:23:36;7.38;;;2.42;;
52126;SDS011;38120;53.176;6.614;2024-03-23T12:26:05;10.93;;;2.20;;
52126;SDS011;38120;53.176;6.614;2024-03-23T12:28:31;7.85;;;2.38;;
52126;SDS011;38120;53.176;6.614;2024-03-23T12:30:57;5.18;;;3.05;;
52126;SDS011;38120;53.176;6.614;2024-03-23T12:33:23;7.97;;;2.78;;
52126;SDS011;38120;53.176;6.614;2024-03-23T12:35:49;10.67;;;2.60;;
52126;SDS011;38120;53.176;6.614;2024-03-23T12:38:15;10.13;;;2.47;;
52126;SDS011;38120;53.176;6.614;2024-03-23T12:40:42;9.35;;;2.65;;
52126;SDS011;38120;53.176;6.614;2024-03-23T12:43:12;10.93;;;3.13;;
52126;SDS011;38120;53.176;6.614;2024-03-23T12:45:38;11.73;;;3.00;;
52126;SDS011;38120;53.176;6.614;2024-03-23T12:48:04;5.38;;;2.20;;
52126;SDS011;38120;53.176;6.614;2024-03-23T12:50:30;10.45;;;3.08;;
52126;SDS011;38120;53.176;6.614;2024-03-23T12:52:55;11.30;;;3.43;;
52126;SDS011;38120;53.176;6.614;2024-03-23T12:55:21;10.20;;;3.33;;
52126;SDS011;38120;53.176;6.614;2024-03-23T12:57:47;5.68;;;2.25;;
52126;SDS011;38120;53.176;6.614;2024-03-23T13:00:13;6.20;;;1.87;;
52126;SDS011;38120;53.176;6.614;2024-03-23T13:02:40;5.63;;;1.80;;
52126;SDS011;38120;53.176;6.614;2024-03-23T13:05:06;12.07;;;3.03;;
52126;SDS011;38120;53.176;6.614;2024-03-23T13:07:33;9.35;;;2.50;;
52126;SDS011;38120;53.176;6.614;2024-03-23T13:12:26;5.18;;;2.42;;
52126;SDS011;38120;53.176;6.614;2024-03-23T13:14:51;4.93;;;1.60;;
52126;SDS011;38120;53.176;6.614;2024-03-23T13:17:17;9.50;;;2.63;;
52126;SDS011;38120;53.176;6.614;2024-03-23T13:19:43;7.78;;;2.40;;
52126;SDS011;38120;53.176;6.614;2024-03-23T13:22:09;8.30;;;2.95;;
52126;SDS011;38120;53.176;6.614;2024-03-23T13:24:37;8.18;;;1.40;;
52126;SDS011;38120;53.176;6.614;2024-03-23T13:27:04;3.40;;;1.30;;
52126;SDS011;38120;53.176;6.614;2024-03-23T13:29:33;6.32;;;1.98;;
52126;SDS011;38120;53.176;6.614;2024-03-23T13:32:03;6.93;;;2.10;;
52126;SDS011;38120;53.176;6.614;2024-03-23T13:34:29;10.30;;;3.08;;
52126;SDS011;38120;53.176;6.614;2024-03-23T13:36:55;13.38;;;2.85;;
52126;SDS011;38120;53.176;6.614;2024-03-23T13:39:23;6.68;;;2.75;;
52126;SDS011;38120;53.176;6.614;2024-03-23T13:41:49;10.77;;;3.42;;
52126;SDS011;38120;53.176;6.614;2024-03-23T13:44:14;8.07;;;2.97;;
52126;SDS011;38120;53.176;6.614;2024-03-23T13:46:41;10.45;;;3.08;;
52126;SDS011;38120;53.176;6.614;2024-03-23T13:49:09;10.40;;;3.92;;
52126;SDS011;38120;53.176;6.614;2024-03-23T13:51:49;10.18;;;2.42;;
52126;SDS011;38120;53.176;6.614;2024-03-23T13:54:15;12.43;;;3.30;;
52126;SDS011;38120;53.176;6.614;2024-03-23T13:56:41;9.20;;;2.83;;
52126;SDS011;38120;53.176;6.614;2024-03-23T13:59:06;11.90;;;2.57;;
52126;SDS011;38120;53.176;6.614;2024-03-23T14:01:32;7.57;;;2.77;;
52126;SDS011;38120;53.176;6.614;2024-03-23T14:03:58;7.93;;;2.83;;
52126;SDS011;38120;53.176;6.614;2024-03-23T14:06:26;10.63;;;3.05;;
52126;SDS011;38120;53.176;6.614;2024-03-23T14:08:51;10.63;;;2.43;;
52126;SDS011;38120;53.176;6.614;2024-03-23T14:11:18;7.40;;;2.23;;
52126;SDS011;38120;53.176;6.614;2024-03-23T14:13:44;10.85;;;2.55;;
52126;SDS011;38120;53.176;6.614;2024-03-23T14:16:09;10.75;;;2.83;;
52126;SDS011;38120;53.176;6.614;2024-03-23T14:18:35;9.45;;;3.60;;
52126;SDS011;38120;53.176;6.614;2024-03-23T14:21:01;10.88;;;3.17;;
52126;SDS011;38120;53.176;6.614;2024-03-23T14:23:30;9.25;;;2.90;;
52126;SDS011;38120;53.176;6.614;2024-03-23T14:25:59;6.38;;;2.05;;
52126;SDS011;38120;53.176;6.614;2024-03-23T14:28:25;7.50;;;1.85;;
52126;SDS011;38120;53.176;6.614;2024-03-23T14:30:51;4.07;;;1.97;;
52126;SDS011;38120;53.176;6.614;2024-03-23T14:33:20;6.95;;;2.05;;
52126;SDS011;38120;53.176;6.614;2024-03-23T14:35:52;6.82;;;2.45;;
52126;SDS011;38120;53.176;6.614;2024-03-23T14:38:25;10.18;;;2.83;;
52126;SDS011;38120;53.176;6.614;2024-03-23T14:40:51;10.60;;;2.22;;
52126;SDS011;38120;53.176;6.614;2024-03-23T14:43:18;14.07;;;3.33;;
52126;SDS011;38120;53.176;6.614;2024-03-23T14:48:42;12.18;;;3.63;;
52126;SDS011;38120;53.176;6.614;2024-03-23T14:51:09;9.90;;;3.33;;
52126;SDS011;38120;53.176;6.614;2024-03-23T14:53:36;11.40;;;2.88;;
52126;SDS011;38120;53.176;6.614;2024-03-23T14:56:07;22.25;;;5.20;;
52126;SDS011;38120;53.176;6.614;2024-03-23T14:58:35;8.68;;;2.75;;
52126;SDS011;38120;53.176;6.614;2024-03-23T15:01:01;10.13;;;3.08;;
52126;SDS011;38120;53.176;6.614;2024-03-23T15:03:28;7.97;;;3.30;;
52126;SDS011;38120;53.176;6.614;2024-03-23T15:05:58;10.43;;;4.17;;
52126;SDS011;38120;53.176;6.614;2024-03-23T15:08:25;11.52;;;3.65;;
52126;SDS011;38120;53.176;6.614;2024-03-23T15:10:51;7.60;;;2.67;;
52126;SDS011;38120;53.176;6.614;2024-03-23T15:13:17;9.15;;;2.63;;
52126;SDS011;38120;53.176;6.614;2024-03-23T15:15:43;5.03;;;1.95;;
52126;SDS011;38120;53.176;6.614;2024-03-23T15:18:13;9.65;;;2.72;;
52126;SDS011;38120;53.176;6.614;2024-03-23T15:20:53;7.20;;;2.38;;
52126;SDS011;38120;53.176;6.614;2024-03-23T15:23:20;6.85;;;2.65;;
52126;SDS011;38120;53.176;6.614;2024-03-23T15:25:53;9.88;;;3.08;;
52126;SDS011;38120;53.176;6.614;2024-03-23T15:28:26;9.20;;;2.40;;
52126;SDS011;38120;53.176;6.614;2024-03-23T15:31:03;15.27;;;3.65;;
52126;SDS011;38120;53.176;6.614;2024-03-23T15:33:38;9.30;;;2.78;;
52126;SDS011;38120;53.176;6.614;2024-03-23T15:36:05;9.65;;;2.55;;
52126;SDS011;38120;53.176;6.614;2024-03-23T15:38:31;8.85;;;3.40;;
52126;SDS011;38120;53.176;6.614;2024-03-23T15:40:57;8.05;;;2.83;;
52126;SDS011;38120;53.176;6.614;2024-03-23T15:43:23;9.57;;;3.17;;
52126;SDS011;38120;53.176;6.614;2024-03-23T15:46:04;11.60;;;3.40;;
52126;SDS011;38120;53.176;6.614;2024-03-23T15:48:35;10.98;;;3.50;;
52126;SDS011;38120;53.176;6.614;2024-03-23T15:51:02;11.38;;;3.33;;
52126;SDS011;38120;53.176;6.614;2024-03-23T15:53:31;9.88;;;2.78;;
52126;SDS011;38120;53.176;6.614;2024-03-23T15:58:25;8.40;;;3.08;;
52126;SDS011;38120;53.176;6.614;2024-03-23T16:03:27;13.82;;;4.20;;
52126;SDS011;38120;53.176;6.614;2024-03-23T16:05:54;9.35;;;3.38;;
52126;SDS011;38120;53.176;6.614;2024-03-23T16:08:20;8.02;;;2.63;;
52126;SDS011;38120;53.176;6.614;2024-03-23T16:10:47;8.20;;;2.90;;
52126;SDS011;38120;53.176;6.614;2024-03-23T16:13:13;12.07;;;3.28;;
52126;SDS011;38120;53.176;6.614;2024-03-23T16:15:39;12.52;;;3.45;;
52126;SDS011;38120;53.176;6.614;2024-03-23T16:18:05;8.25;;;3.30;;
52126;SDS011;38120;53.176;6.614;2024-03-23T16:20:31;12.40;;;2.92;;
52126;SDS011;38120;53.176;6.614;2024-03-23T16:23:00;11.32;;;2.85;;
52126;SDS011;38120;53.176;6.614;2024-03-23T16:27:52;9.00;;;2.83;;
52126;SDS011;38120;53.176;6.614;2024-03-23T16:30:18;12.85;;;3.47;;
52126;SDS011;38120;53.176;6.614;2024-03-23T16:32:45;11.15;;;2.58;;
52126;SDS011;38120;53.176;6.614;2024-03-23T16:35:12;5.88;;;2.15;;
52126;SDS011;38120;53.176;6.614;2024-03-23T16:37:39;9.05;;;2.70;;
52126;SDS011;38120;53.176;6.614;2024-03-23T16:40:05;9.90;;;3.15;;